sensor_id;sensor_type;location;lat;lon;timestamp;P1;durP1;ratioP1;P2;durP2;ratioP2
16029;SDS011;34770;49.272;11.070;2023-09-18T00:00:08;5.65;;;5.03;;
16029;SDS011;34770;49.272;11.070;2023-09-18T00:02:36;5.68;;;5.15;;
16029;SDS011;34770;49.272;11.070;2023-09-18T00:05:01;5.97;;;5.38;;
16029;SDS011;34770;49.272;11.070;2023-09-18T00:07:27;6.35;;;5.13;;
16029;SDS011;34770;49.272;11.070;2023-09-18T00:09:52;8.05;;;5.47;;
16029;SDS011;34770;49.272;11.070;2023-09-18T00:12:18;5.43;;;4.95;;
16029;SDS011;34770;49.272;11.070;2023-09-18T00:14:43;6.03;;;5.28;;
16029;SDS011;34770;49.272;11.070;2023-09-18T00:17:12;5.88;;;5.28;;
16029;SDS011;34770;49.272;11.070;2023-09-18T00:19:38;5.57;;;5.07;;
16029;SDS011;34770;49.272;11.070;2023-09-18T00:22:03;5.55;;;5.07;;
16029;SDS011;34770;49.272;11.070;2023-09-18T00:24:28;5.72;;;5.22;;
16029;SDS011;34770;49.272;11.070;2023-09-18T00:26:54;6.60;;;5.72;;
16029;SDS011;34770;49.272;11.070;2023-09-18T00:29:19;5.80;;;5.30;;
16029;SDS011;34770;49.272;11.070;2023-09-18T00:31:45;7.10;;;5.93;;
16029;SDS011;34770;49.272;11.070;2023-09-18T00:34:10;7.38;;;5.47;;
16029;SDS011;34770;49.272;11.070;2023-09-18T00:36:35;5.85;;;5.35;;
16029;SDS011;34770;49.272;11.070;2023-09-18T00:39:01;6.63;;;6.03;;
16029;SDS011;34770;49.272;11.070;2023-09-18T00:41:27;7.15;;;6.40;;
16029;SDS011;34770;49.272;11.070;2023-09-18T00:43:52;7.47;;;6.10;;
16029;SDS011;34770;49.272;11.070;2023-09-18T00:46:17;6.93;;;5.53;;
16029;SDS011;34770;49.272;11.070;2023-09-18T00:48:43;6.93;;;6.28;;
16029;SDS011;34770;49.272;11.070;2023-09-18T00:51:08;6.43;;;5.82;;
16029;SDS011;34770;49.272;11.070;2023-09-18T00:53:34;6.70;;;6.10;;
16029;SDS011;34770;49.272;11.070;2023-09-18T00:56:00;6.82;;;6.00;;
16029;SDS011;34770;49.272;11.070;2023-09-18T00:58:28;5.53;;;5.03;;
16029;SDS011;34770;49.272;11.070;2023-09-18T01:00:54;6.30;;;5.07;;
16029;SDS011;34770;49.272;11.070;2023-09-18T01:03:20;6.00;;;5.40;;
16029;SDS011;34770;49.272;11.070;2023-09-18T01:05:47;7.35;;;5.85;;
16029;SDS011;34770;49.272;11.070;2023-09-18T01:08:12;5.45;;;4.78;;
16029;SDS011;34770;49.272;11.070;2023-09-18T01:10:47;5.75;;;5.25;;
16029;SDS011;34770;49.272;11.070;2023-09-18T01:13:23;6.20;;;5.57;;
16029;SDS011;34770;49.272;11.070;2023-09-18T01:15:56;6.30;;;5.22;;
16029;SDS011;34770;49.272;11.070;2023-09-18T01:18:24;7.07;;;5.70;;
16029;SDS011;34770;49.272;11.070;2023-09-18T01:20:50;6.15;;;5.50;;
16029;SDS011;34770;49.272;11.070;2023-09-18T01:23:15;6.22;;;5.72;;
16029;SDS011;34770;49.272;11.070;2023-09-18T01:25:41;6.50;;;5.85;;
16029;SDS011;34770;49.272;11.070;2023-09-18T01:28:06;6.63;;;5.93;;
16029;SDS011;34770;49.272;11.070;2023-09-18T01:30:31;8.73;;;5.68;;
16029;SDS011;34770;49.272;11.070;2023-09-18T01:32:59;7.00;;;5.57;;
16029;SDS011;34770;49.272;11.070;2023-09-18T01:35:27;5.90;;;5.30;;
16029;SDS011;34770;49.272;11.070;2023-09-18T01:37:58;5.88;;;5.20;;
16029;SDS011;34770;49.272;11.070;2023-09-18T01:40:24;5.55;;;5.05;;
16029;SDS011;34770;49.272;11.070;2023-09-18T01:42:51;5.78;;;5.00;;
16029;SDS011;34770;49.272;11.070;2023-09-18T01:45:17;6.00;;;5.50;;
16029;SDS011;34770;49.272;11.070;2023-09-18T01:47:42;6.40;;;5.78;;
16029;SDS011;34770;49.272;11.070;2023-09-18T01:50:08;6.00;;;5.38;;
16029;SDS011;34770;49.272;11.070;2023-09-18T01:52:34;5.72;;;5.20;;
16029;SDS011;34770;49.272;11.070;2023-09-18T01:55:00;5.93;;;5.32;;
16029;SDS011;34770;49.272;11.070;2023-09-18T01:57:26;5.80;;;5.05;;
16029;SDS011;34770;49.272;11.070;2023-09-18T01:59:51;6.18;;;5.55;;
16029;SDS011;34770;49.272;11.070;2023-09-18T02:02:16;6.13;;;5.53;;
16029;SDS011;34770;49.272;11.070;2023-09-18T02:04:42;9.18;;;5.25;;
16029;SDS011;34770;49.272;11.070;2023-09-18T02:07:07;6.00;;;5.40;;
16029;SDS011;34770;49.272;11.070;2023-09-18T02:09:34;5.68;;;4.90;;
16029;SDS011;34770;49.272;11.070;2023-09-18T02:11:59;5.38;;;4.90;;
16029;SDS011;34770;49.272;11.070;2023-09-18T02:14:24;5.85;;;5.35;;
16029;SDS011;34770;49.272;11.070;2023-09-18T02:16:50;7.22;;;5.20;;
16029;SDS011;34770;49.272;11.070;2023-09-18T02:19:16;6.03;;;5.43;;
16029;SDS011;34770;49.272;11.070;2023-09-18T02:21:43;5.32;;;4.90;;
16029;SDS011;34770;49.272;11.070;2023-09-18T02:24:08;5.88;;;5.25;;
16029;SDS011;34770;49.272;11.070;2023-09-18T02:26:34;5.22;;;4.72;;
16029;SDS011;34770;49.272;11.070;2023-09-18T02:29:00;5.22;;;4.72;;
16029;SDS011;34770;49.272;11.070;2023-09-18T02:31:27;6.57;;;5.97;;
16029;SDS011;34770;49.272;11.070;2023-09-18T02:33:53;7.65;;;5.35;;
16029;SDS011;34770;49.272;11.070;2023-09-18T02:36:18;6.63;;;5.20;;
16029;SDS011;34770;49.272;11.070;2023-09-18T02:38:43;5.53;;;4.95;;
16029;SDS011;34770;49.272;11.070;2023-09-18T02:41:09;6.32;;;5.05;;
16029;SDS011;34770;49.272;11.070;2023-09-18T02:43:35;5.85;;;5.25;;
16029;SDS011;34770;49.272;11.070;2023-09-18T02:46:02;6.13;;;5.53;;
16029;SDS011;34770;49.272;11.070;2023-09-18T02:48:28;5.93;;;5.35;;
16029;SDS011;34770;49.272;11.070;2023-09-18T02:50:54;7.13;;;5.30;;
16029;SDS011;34770;49.272;11.070;2023-09-18T02:55:50;7.07;;;5.43;;
16029;SDS011;34770;49.272;11.070;2023-09-18T02:58:17;6.72;;;5.35;;
16029;SDS011;34770;49.272;11.070;2023-09-18T03:00:44;6.43;;;5.82;;
16029;SDS011;34770;49.272;11.070;2023-09-18T03:03:10;8.93;;;5.57;;
16029;SDS011;34770;49.272;11.070;2023-09-18T03:05:36;6.38;;;5.45;;
16029;SDS011;34770;49.272;11.070;2023-09-18T03:08:02;5.93;;;5.40;;
16029;SDS011;34770;49.272;11.070;2023-09-18T03:10:32;7.35;;;5.05;;
16029;SDS011;34770;49.272;11.070;2023-09-18T03:12:58;6.53;;;5.80;;
16029;SDS011;34770;49.272;11.070;2023-09-18T03:15:23;5.55;;;5.00;;
16029;SDS011;34770;49.272;11.070;2023-09-18T03:17:50;5.90;;;5.35;;
16029;SDS011;34770;49.272;11.070;2023-09-18T03:20:15;5.90;;;5.30;;
16029;SDS011;34770;49.272;11.070;2023-09-18T03:22:41;5.43;;;4.93;;
16029;SDS011;34770;49.272;11.070;2023-09-18T03:25:06;6.13;;;5.05;;
16029;SDS011;34770;49.272;11.070;2023-09-18T03:27:32;7.25;;;5.57;;
16029;SDS011;34770;49.272;11.070;2023-09-18T03:29:57;6.35;;;5.75;;
16029;SDS011;34770;49.272;11.070;2023-09-18T03:32:23;6.65;;;5.85;;
16029;SDS011;34770;49.272;11.070;2023-09-18T03:34:52;6.20;;;5.60;;
16029;SDS011;34770;49.272;11.070;2023-09-18T03:37:18;6.70;;;6.07;;
16029;SDS011;34770;49.272;11.070;2023-09-18T03:39:43;6.15;;;5.50;;
16029;SDS011;34770;49.272;11.070;2023-09-18T03:42:09;5.78;;;5.18;;
16029;SDS011;34770;49.272;11.070;2023-09-18T03:44:34;5.85;;;5.25;;
16029;SDS011;34770;49.272;11.070;2023-09-18T03:46:59;6.13;;;5.53;;
16029;SDS011;34770;49.272;11.070;2023-09-18T03:49:25;5.95;;;4.82;;
16029;SDS011;34770;49.272;11.070;2023-09-18T03:51:52;5.72;;;5.20;;
16029;SDS011;34770;49.272;11.070;2023-09-18T03:54:17;6.55;;;5.22;;
16029;SDS011;34770;49.272;11.070;2023-09-18T03:56:42;6.22;;;5.63;;
16029;SDS011;34770;49.272;11.070;2023-09-18T03:59:08;6.32;;;5.72;;
16029;SDS011;34770;49.272;11.070;2023-09-18T04:01:33;6.30;;;5.63;;
16029;SDS011;34770;49.272;11.070;2023-09-18T04:03:58;5.47;;;4.97;;
16029;SDS011;34770;49.272;11.070;2023-09-18T04:06:25;7.05;;;5.63;;
16029;SDS011;34770;49.272;11.070;2023-09-18T04:08:50;6.22;;;5.60;;
16029;SDS011;34770;49.272;11.070;2023-09-18T04:11:16;6.00;;;5.38;;
16029;SDS011;34770;49.272;11.070;2023-09-18T04:13:44;8.45;;;5.13;;
16029;SDS011;34770;49.272;11.070;2023-09-18T04:16:10;6.32;;;5.72;;
16029;SDS011;34770;49.272;11.070;2023-09-18T04:18:38;6.82;;;5.95;;
16029;SDS011;34770;49.272;11.070;2023-09-18T04:21:04;5.80;;;5.22;;
16029;SDS011;34770;49.272;11.070;2023-09-18T04:23:29;8.90;;;5.45;;
16029;SDS011;34770;49.272;11.070;2023-09-18T04:25:54;6.30;;;5.70;;
16029;SDS011;34770;49.272;11.070;2023-09-18T04:28:20;6.18;;;5.57;;
16029;SDS011;34770;49.272;11.070;2023-09-18T04:30:47;7.80;;;6.25;;
16029;SDS011;34770;49.272;11.070;2023-09-18T04:33:13;6.10;;;5.50;;
16029;SDS011;34770;49.272;11.070;2023-09-18T04:35:39;6.22;;;5.63;;
16029;SDS011;34770;49.272;11.070;2023-09-18T04:38:08;7.80;;;6.20;;
16029;SDS011;34770;49.272;11.070;2023-09-18T04:40:35;6.43;;;5.82;;
16029;SDS011;34770;49.272;11.070;2023-09-18T04:43:03;5.78;;;5.28;;
16029;SDS011;34770;49.272;11.070;2023-09-18T04:45:29;5.82;;;5.28;;
16029;SDS011;34770;49.272;11.070;2023-09-18T04:47:55;6.55;;;5.60;;
16029;SDS011;34770;49.272;11.070;2023-09-18T04:50:21;6.43;;;5.85;;
16029;SDS011;34770;49.272;11.070;2023-09-18T04:52:47;5.72;;;5.22;;
16029;SDS011;34770;49.272;11.070;2023-09-18T04:55:13;6.97;;;6.28;;
16029;SDS011;34770;49.272;11.070;2023-09-18T04:57:39;6.95;;;6.35;;
16029;SDS011;34770;49.272;11.070;2023-09-18T05:00:05;6.22;;;5.32;;
16029;SDS011;34770;49.272;11.070;2023-09-18T05:02:37;6.45;;;5.85;;
16029;SDS011;34770;49.272;11.070;2023-09-18T05:05:03;7.95;;;6.40;;
16029;SDS011;34770;49.272;11.070;2023-09-18T05:07:29;7.47;;;5.68;;
16029;SDS011;34770;49.272;11.070;2023-09-18T05:09:55;7.55;;;6.13;;
16029;SDS011;34770;49.272;11.070;2023-09-18T05:12:23;6.78;;;6.07;;
16029;SDS011;34770;49.272;11.070;2023-09-18T05:14:49;6.43;;;5.75;;
16029;SDS011;34770;49.272;11.070;2023-09-18T05:17:16;7.57;;;6.78;;
16029;SDS011;34770;49.272;11.070;2023-09-18T05:19:42;7.05;;;6.45;;
16029;SDS011;34770;49.272;11.070;2023-09-18T05:22:08;6.78;;;6.15;;
16029;SDS011;34770;49.272;11.070;2023-09-18T05:24:37;6.30;;;5.70;;
16029;SDS011;34770;49.272;11.070;2023-09-18T05:27:05;7.75;;;6.15;;
16029;SDS011;34770;49.272;11.070;2023-09-18T05:29:32;6.47;;;5.88;;
16029;SDS011;34770;49.272;11.070;2023-09-18T05:31:59;6.80;;;6.10;;
16029;SDS011;34770;49.272;11.070;2023-09-18T05:34:24;6.90;;;6.10;;
16029;SDS011;34770;49.272;11.070;2023-09-18T05:36:57;7.28;;;6.47;;
16029;SDS011;34770;49.272;11.070;2023-09-18T05:39:23;7.97;;;6.15;;
16029;SDS011;34770;49.272;11.070;2023-09-18T05:41:48;7.07;;;6.07;;
16029;SDS011;34770;49.272;11.070;2023-09-18T05:44:14;8.73;;;5.72;;
16029;SDS011;34770;49.272;11.070;2023-09-18T05:46:39;6.25;;;5.65;;
16029;SDS011;34770;49.272;11.070;2023-09-18T05:49:05;6.80;;;6.15;;
16029;SDS011;34770;49.272;11.070;2023-09-18T05:51:30;7.53;;;5.65;;
16029;SDS011;34770;49.272;11.070;2023-09-18T05:53:57;8.15;;;5.88;;
16029;SDS011;34770;49.272;11.070;2023-09-18T05:56:23;5.88;;;5.38;;
16029;SDS011;34770;49.272;11.070;2023-09-18T05:58:49;7.60;;;5.80;;
16029;SDS011;34770;49.272;11.070;2023-09-18T06:01:14;7.88;;;6.15;;
16029;SDS011;34770;49.272;11.070;2023-09-18T06:03:39;8.60;;;6.20;;
16029;SDS011;34770;49.272;11.070;2023-09-18T06:06:05;8.13;;;6.55;;
16029;SDS011;34770;49.272;11.070;2023-09-18T06:08:30;8.30;;;5.90;;
16029;SDS011;34770;49.272;11.070;2023-09-18T06:10:56;9.02;;;6.60;;
16029;SDS011;34770;49.272;11.070;2023-09-18T06:13:25;6.95;;;6.25;;
16029;SDS011;34770;49.272;11.070;2023-09-18T06:15:51;7.47;;;6.25;;
16029;SDS011;34770;49.272;11.070;2023-09-18T06:18:19;8.35;;;5.75;;
16029;SDS011;34770;49.272;11.070;2023-09-18T06:20:45;7.45;;;6.72;;
16029;SDS011;34770;49.272;11.070;2023-09-18T06:23:11;8.07;;;6.82;;
16029;SDS011;34770;49.272;11.070;2023-09-18T06:25:37;7.00;;;6.30;;
16029;SDS011;34770;49.272;11.070;2023-09-18T06:28:03;7.63;;;6.88;;
16029;SDS011;34770;49.272;11.070;2023-09-18T06:30:29;8.40;;;6.82;;
16029;SDS011;34770;49.272;11.070;2023-09-18T06:32:59;8.18;;;5.72;;
16029;SDS011;34770;49.272;11.070;2023-09-18T06:35:26;7.50;;;6.22;;
16029;SDS011;34770;49.272;11.070;2023-09-18T06:37:51;8.43;;;6.45;;
16029;SDS011;34770;49.272;11.070;2023-09-18T06:40:17;7.85;;;6.50;;
16029;SDS011;34770;49.272;11.070;2023-09-18T06:42:43;6.70;;;5.43;;
16029;SDS011;34770;49.272;11.070;2023-09-18T06:45:09;8.90;;;6.80;;
16029;SDS011;34770;49.272;11.070;2023-09-18T06:47:34;6.78;;;5.72;;
16029;SDS011;34770;49.272;11.070;2023-09-18T06:50:00;7.07;;;5.80;;
16029;SDS011;34770;49.272;11.070;2023-09-18T06:52:26;7.97;;;6.25;;
16029;SDS011;34770;49.272;11.070;2023-09-18T06:54:53;8.45;;;6.22;;
16029;SDS011;34770;49.272;11.070;2023-09-18T06:57:18;7.68;;;5.85;;
16029;SDS011;34770;49.272;11.070;2023-09-18T06:59:46;8.35;;;6.55;;
16029;SDS011;34770;49.272;11.070;2023-09-18T07:02:11;7.95;;;5.70;;
16029;SDS011;34770;49.272;11.070;2023-09-18T07:04:39;6.63;;;5.93;;
16029;SDS011;34770;49.272;11.070;2023-09-18T07:07:09;7.45;;;5.85;;
16029;SDS011;34770;49.272;11.070;2023-09-18T07:09:35;7.43;;;5.57;;
16029;SDS011;34770;49.272;11.070;2023-09-18T07:12:00;6.57;;;5.72;;
16029;SDS011;34770;49.272;11.070;2023-09-18T07:14:26;8.25;;;5.35;;
16029;SDS011;34770;49.272;11.070;2023-09-18T07:16:51;8.55;;;6.38;;
16029;SDS011;34770;49.272;11.070;2023-09-18T07:19:16;6.05;;;5.40;;
16029;SDS011;34770;49.272;11.070;2023-09-18T07:21:42;7.00;;;5.32;;
16029;SDS011;34770;49.272;11.070;2023-09-18T07:24:07;9.20;;;5.47;;
16029;SDS011;34770;49.272;11.070;2023-09-18T07:26:33;7.60;;;5.20;;
16029;SDS011;34770;49.272;11.070;2023-09-18T07:28:58;8.07;;;5.97;;
16029;SDS011;34770;49.272;11.070;2023-09-18T07:31:24;6.45;;;5.07;;
16029;SDS011;34770;49.272;11.070;2023-09-18T07:33:50;6.00;;;5.40;;
16029;SDS011;34770;49.272;11.070;2023-09-18T07:36:16;5.90;;;5.30;;
16029;SDS011;34770;49.272;11.070;2023-09-18T07:38:42;6.78;;;5.07;;
16029;SDS011;34770;49.272;11.070;2023-09-18T07:41:08;6.00;;;5.40;;
16029;SDS011;34770;49.272;11.070;2023-09-18T07:43:33;5.60;;;5.10;;
16029;SDS011;34770;49.272;11.070;2023-09-18T07:45:59;7.07;;;4.93;;
16029;SDS011;34770;49.272;11.070;2023-09-18T07:48:26;5.38;;;4.85;;
16029;SDS011;34770;49.272;11.070;2023-09-18T07:50:52;6.25;;;5.65;;
16029;SDS011;34770;49.272;11.070;2023-09-18T07:53:19;5.38;;;4.47;;
16029;SDS011;34770;49.272;11.070;2023-09-18T07:55:44;6.10;;;5.00;;
16029;SDS011;34770;49.272;11.070;2023-09-18T07:58:09;6.53;;;4.75;;
16029;SDS011;34770;49.272;11.070;2023-09-18T08:00:36;7.72;;;4.90;;
16029;SDS011;34770;49.272;11.070;2023-09-18T08:03:01;8.48;;;4.45;;
16029;SDS011;34770;49.272;11.070;2023-09-18T08:05:27;5.22;;;4.60;;
16029;SDS011;34770;49.272;11.070;2023-09-18T08:07:53;6.10;;;4.90;;
16029;SDS011;34770;49.272;11.070;2023-09-18T08:10:20;5.90;;;4.53;;
16029;SDS011;34770;49.272;11.070;2023-09-18T08:12:46;6.93;;;4.97;;
16029;SDS011;34770;49.272;11.070;2023-09-18T08:15:13;4.63;;;3.78;;
16029;SDS011;34770;49.272;11.070;2023-09-18T08:17:39;5.00;;;4.35;;
16029;SDS011;34770;49.272;11.070;2023-09-18T08:20:06;6.10;;;4.55;;
16029;SDS011;34770;49.272;11.070;2023-09-18T08:22:37;6.35;;;4.03;;
16029;SDS011;34770;49.272;11.070;2023-09-18T08:25:02;7.25;;;4.28;;
16029;SDS011;34770;49.272;11.070;2023-09-18T08:27:28;6.97;;;4.10;;
16029;SDS011;34770;49.272;11.070;2023-09-18T08:29:54;4.40;;;4.00;;
16029;SDS011;34770;49.272;11.070;2023-09-18T08:32:19;4.07;;;3.67;;
16029;SDS011;34770;49.272;11.070;2023-09-18T08:34:44;8.10;;;4.13;;
16029;SDS011;34770;49.272;11.070;2023-09-18T08:37:10;6.18;;;3.97;;
16029;SDS011;34770;49.272;11.070;2023-09-18T08:39:35;6.95;;;4.35;;
16029;SDS011;34770;49.272;11.070;2023-09-18T08:42:03;7.13;;;3.65;;
16029;SDS011;34770;49.272;11.070;2023-09-18T08:44:29;6.95;;;4.18;;
16029;SDS011;34770;49.272;11.070;2023-09-18T08:46:55;6.38;;;3.63;;
16029;SDS011;34770;49.272;11.070;2023-09-18T08:49:24;6.22;;;3.40;;
16029;SDS011;34770;49.272;11.070;2023-09-18T08:51:51;6.95;;;4.28;;
16029;SDS011;34770;49.272;11.070;2023-09-18T08:54:20;6.18;;;3.83;;
16029;SDS011;34770;49.272;11.070;2023-09-18T08:56:46;8.18;;;4.03;;
16029;SDS011;34770;49.272;11.070;2023-09-18T08:59:12;5.20;;;3.30;;
16029;SDS011;34770;49.272;11.070;2023-09-18T09:01:38;5.10;;;3.10;;
16029;SDS011;34770;49.272;11.070;2023-09-18T09:04:04;5.85;;;3.70;;
16029;SDS011;34770;49.272;11.070;2023-09-18T09:06:29;8.52;;;3.42;;
16029;SDS011;34770;49.272;11.070;2023-09-18T09:08:55;7.43;;;4.00;;
16029;SDS011;34770;49.272;11.070;2023-09-18T09:11:20;8.45;;;3.85;;
16029;SDS011;34770;49.272;11.070;2023-09-18T09:13:45;8.20;;;3.85;;
16029;SDS011;34770;49.272;11.070;2023-09-18T09:16:11;9.90;;;3.42;;
16029;SDS011;34770;49.272;11.070;2023-09-18T09:18:46;4.60;;;3.05;;
16029;SDS011;34770;49.272;11.070;2023-09-18T09:21:15;3.67;;;2.90;;
16029;SDS011;34770;49.272;11.070;2023-09-18T09:23:45;10.80;;;2.95;;
16029;SDS011;34770;49.272;11.070;2023-09-18T09:26:21;5.88;;;2.95;;
16029;SDS011;34770;49.272;11.070;2023-09-18T09:28:47;14.30;;;3.50;;
16029;SDS011;34770;49.272;11.070;2023-09-18T09:31:26;14.57;;;3.83;;
16029;SDS011;34770;49.272;11.070;2023-09-18T09:33:53;6.03;;;3.03;;
16029;SDS011;34770;49.272;11.070;2023-09-18T09:36:22;4.60;;;2.42;;
16029;SDS011;34770;49.272;11.070;2023-09-18T09:38:49;15.02;;;2.97;;
16029;SDS011;34770;49.272;11.070;2023-09-18T09:41:21;4.82;;;2.58;;
16029;SDS011;34770;49.272;11.070;2023-09-18T09:43:46;8.38;;;2.92;;
16029;SDS011;34770;49.272;11.070;2023-09-18T09:46:15;6.45;;;2.47;;
16029;SDS011;34770;49.272;11.070;2023-09-18T09:49:02;9.20;;;2.60;;
16029;SDS011;34770;49.272;11.070;2023-09-18T09:51:29;4.93;;;2.28;;
16029;SDS011;34770;49.272;11.070;2023-09-18T09:53:55;9.43;;;2.80;;
16029;SDS011;34770;49.272;11.070;2023-09-18T09:56:23;6.53;;;2.38;;
16029;SDS011;34770;49.272;11.070;2023-09-18T09:59:05;8.40;;;1.92;;
16029;SDS011;34770;49.272;11.070;2023-09-18T10:01:34;10.82;;;3.13;;
16029;SDS011;34770;49.272;11.070;2023-09-18T10:04:04;7.40;;;2.47;;
16029;SDS011;34770;49.272;11.070;2023-09-18T10:06:34;4.90;;;2.78;;
16029;SDS011;34770;49.272;11.070;2023-09-18T10:09:04;6.72;;;3.08;;
16029;SDS011;34770;49.272;11.070;2023-09-18T10:11:33;7.07;;;2.45;;
16029;SDS011;34770;49.272;11.070;2023-09-18T10:14:10;9.68;;;3.38;;
16029;SDS011;34770;49.272;11.070;2023-09-18T10:16:41;7.13;;;2.85;;
16029;SDS011;34770;49.272;11.070;2023-09-18T10:22:30;9.57;;;3.47;;
16029;SDS011;34770;49.272;11.070;2023-09-18T10:25:23;7.78;;;2.10;;
16029;SDS011;34770;49.272;11.070;2023-09-18T10:27:56;4.22;;;1.77;;
16029;SDS011;34770;49.272;11.070;2023-09-18T10:30:29;7.22;;;1.90;;
16029;SDS011;34770;49.272;11.070;2023-09-18T10:32:56;6.47;;;2.00;;
16029;SDS011;34770;49.272;11.070;2023-09-18T10:35:24;7.90;;;2.10;;
16029;SDS011;34770;49.272;11.070;2023-09-18T10:37:50;11.23;;;2.85;;
16029;SDS011;34770;49.272;11.070;2023-09-18T10:40:19;5.63;;;1.70;;
16029;SDS011;34770;49.272;11.070;2023-09-18T10:42:45;7.38;;;1.63;;
16029;SDS011;34770;49.272;11.070;2023-09-18T10:45:12;8.98;;;1.60;;
16029;SDS011;34770;49.272;11.070;2023-09-18T10:47:41;8.98;;;1.95;;
16029;SDS011;34770;49.272;11.070;2023-09-18T10:50:10;8.25;;;2.25;;
16029;SDS011;34770;49.272;11.070;2023-09-18T10:52:36;8.73;;;1.95;;
16029;SDS011;34770;49.272;11.070;2023-09-18T10:55:10;4.95;;;1.95;;
16029;SDS011;34770;49.272;11.070;2023-09-18T10:57:37;6.68;;;1.77;;
16029;SDS011;34770;49.272;11.070;2023-09-18T11:00:04;4.07;;;1.50;;
16029;SDS011;34770;49.272;11.070;2023-09-18T11:02:38;6.32;;;1.65;;
16029;SDS011;34770;49.272;11.070;2023-09-18T11:05:05;6.13;;;1.77;;
16029;SDS011;34770;49.272;11.070;2023-09-18T11:07:31;4.47;;;1.50;;
16029;SDS011;34770;49.272;11.070;2023-09-18T11:09:56;6.60;;;1.85;;
16029;SDS011;34770;49.272;11.070;2023-09-18T11:12:22;6.97;;;1.80;;
16029;SDS011;34770;49.272;11.070;2023-09-18T11:15:07;4.43;;;2.05;;
16029;SDS011;34770;49.272;11.070;2023-09-18T11:17:36;6.10;;;1.50;;
16029;SDS011;34770;49.272;11.070;2023-09-18T11:20:07;5.53;;;1.60;;
16029;SDS011;34770;49.272;11.070;2023-09-18T11:22:40;6.88;;;1.92;;
16029;SDS011;34770;49.272;11.070;2023-09-18T11:27:56;5.85;;;1.50;;
16029;SDS011;34770;49.272;11.070;2023-09-18T11:30:22;7.25;;;2.63;;
16029;SDS011;34770;49.272;11.070;2023-09-18T11:32:48;5.85;;;1.98;;
16029;SDS011;34770;49.272;11.070;2023-09-18T11:35:14;6.25;;;1.50;;
16029;SDS011;34770;49.272;11.070;2023-09-18T11:37:42;5.72;;;1.55;;
16029;SDS011;34770;49.272;11.070;2023-09-18T11:40:30;8.43;;;1.70;;
16029;SDS011;34770;49.272;11.070;2023-09-18T11:45:50;4.30;;;1.77;;
16029;SDS011;34770;49.272;11.070;2023-09-18T11:48:20;3.50;;;2.17;;
16029;SDS011;34770;49.272;11.070;2023-09-18T11:50:46;5.35;;;1.77;;
16029;SDS011;34770;49.272;11.070;2023-09-18T11:53:16;3.08;;;1.50;;
16029;SDS011;34770;49.272;11.070;2023-09-18T11:55:43;7.13;;;2.05;;
16029;SDS011;34770;49.272;11.070;2023-09-18T11:58:09;5.60;;;1.85;;
16029;SDS011;34770;49.272;11.070;2023-09-18T12:00:35;3.97;;;1.60;;
16029;SDS011;34770;49.272;11.070;2023-09-18T12:03:20;3.13;;;1.40;;
16029;SDS011;34770;49.272;11.070;2023-09-18T12:06:01;2.63;;;1.38;;
16029;SDS011;34770;49.272;11.070;2023-09-18T12:08:30;4.10;;;1.60;;
16029;SDS011;34770;49.272;11.070;2023-09-18T12:10:56;2.78;;;1.20;;
16029;SDS011;34770;49.272;11.070;2023-09-18T12:13:25;3.40;;;1.92;;
16029;SDS011;34770;49.272;11.070;2023-09-18T12:15:56;3.05;;;1.45;;
16029;SDS011;34770;49.272;11.070;2023-09-18T12:18:23;3.78;;;1.60;;
16029;SDS011;34770;49.272;11.070;2023-09-18T12:20:50;4.95;;;1.60;;
16029;SDS011;34770;49.272;11.070;2023-09-18T12:23:16;2.90;;;1.42;;
16029;SDS011;34770;49.272;11.070;2023-09-18T12:25:44;5.32;;;1.20;;
16029;SDS011;34770;49.272;11.070;2023-09-18T12:28:13;3.42;;;1.00;;
16029;SDS011;34770;49.272;11.070;2023-09-18T12:30:40;1.80;;;1.35;;
16029;SDS011;34770;49.272;11.070;2023-09-18T12:33:06;6.03;;;1.27;;
16029;SDS011;34770;49.272;11.070;2023-09-18T12:35:31;1.63;;;1.10;;
16029;SDS011;34770;49.272;11.070;2023-09-18T12:38:00;2.92;;;1.30;;
16029;SDS011;34770;49.272;11.070;2023-09-18T12:40:29;3.28;;;1.40;;
16029;SDS011;34770;49.272;11.070;2023-09-18T12:42:56;2.00;;;1.23;;
16029;SDS011;34770;49.272;11.070;2023-09-18T12:45:23;3.58;;;1.40;;
16029;SDS011;34770;49.272;11.070;2023-09-18T12:47:49;4.70;;;1.50;;
16029;SDS011;34770;49.272;11.070;2023-09-18T12:50:15;4.90;;;1.20;;
16029;SDS011;34770;49.272;11.070;2023-09-18T12:52:41;4.25;;;1.25;;
16029;SDS011;34770;49.272;11.070;2023-09-18T12:55:07;3.65;;;1.45;;
16029;SDS011;34770;49.272;11.070;2023-09-18T12:57:33;3.90;;;1.38;;
16029;SDS011;34770;49.272;11.070;2023-09-18T12:59:58;3.13;;;1.10;;
16029;SDS011;34770;49.272;11.070;2023-09-18T13:02:24;2.70;;;1.25;;
16029;SDS011;34770;49.272;11.070;2023-09-18T13:04:53;1.58;;;1.33;;
16029;SDS011;34770;49.272;11.070;2023-09-18T13:07:19;2.75;;;1.10;;
16029;SDS011;34770;49.272;11.070;2023-09-18T13:10:02;3.22;;;1.38;;
16029;SDS011;34770;49.272;11.070;2023-09-18T13:15:05;1.67;;;1.10;;
16029;SDS011;34770;49.272;11.070;2023-09-18T13:17:43;2.47;;;1.20;;
16029;SDS011;34770;49.272;11.070;2023-09-18T13:20:17;1.77;;;1.05;;
16029;SDS011;34770;49.272;11.070;2023-09-18T13:22:49;3.53;;;1.60;;
16029;SDS011;34770;49.272;11.070;2023-09-18T14:33:51;3.40;;;1.33;;
16029;SDS011;34770;49.272;11.070;2023-09-18T14:36:37;3.67;;;1.25;;
16029;SDS011;34770;49.272;11.070;2023-09-18T14:58:40;1.50;;;1.40;;
16029;SDS011;34770;49.272;11.070;2023-09-18T15:01:18;4.28;;;1.73;;
16029;SDS011;34770;49.272;11.070;2023-09-18T15:03:49;5.43;;;2.28;;
16029;SDS011;34770;49.272;11.070;2023-09-18T15:27:18;4.35;;;1.33;;
16029;SDS011;34770;49.272;11.070;2023-09-18T15:30:16;3.03;;;1.13;;
16029;SDS011;34770;49.272;11.070;2023-09-18T15:38:02;1.85;;;1.27;;
16029;SDS011;34770;49.272;11.070;2023-09-18T15:40:55;3.58;;;1.65;;
16029;SDS011;34770;49.272;11.070;2023-09-18T15:43:21;5.68;;;1.30;;
16029;SDS011;34770;49.272;11.070;2023-09-18T15:46:04;3.45;;;1.50;;
16029;SDS011;34770;49.272;11.070;2023-09-18T15:48:29;2.60;;;1.27;;
16029;SDS011;34770;49.272;11.070;2023-09-18T15:56:05;1.30;;;1.20;;
16029;SDS011;34770;49.272;11.070;2023-09-18T15:58:50;4.07;;;1.48;;
16029;SDS011;34770;49.272;11.070;2023-09-18T16:01:16;2.03;;;1.23;;
16029;SDS011;34770;49.272;11.070;2023-09-18T16:03:41;2.80;;;1.50;;
16029;SDS011;34770;49.272;11.070;2023-09-18T16:06:13;1.80;;;1.30;;
16029;SDS011;34770;49.272;11.070;2023-09-18T16:08:39;2.65;;;1.40;;
16029;SDS011;34770;49.272;11.070;2023-09-18T16:11:04;2.13;;;1.60;;
16029;SDS011;34770;49.272;11.070;2023-09-18T16:13:30;3.08;;;1.98;;
16029;SDS011;34770;49.272;11.070;2023-09-18T16:15:55;1.75;;;1.27;;
16029;SDS011;34770;49.272;11.070;2023-09-18T16:18:21;2.17;;;1.10;;
16029;SDS011;34770;49.272;11.070;2023-09-18T16:20:46;4.65;;;1.35;;
16029;SDS011;34770;49.272;11.070;2023-09-18T16:23:12;3.55;;;1.60;;
16029;SDS011;34770;49.272;11.070;2023-09-18T16:25:38;3.15;;;1.50;;
16029;SDS011;34770;49.272;11.070;2023-09-18T16:28:03;3.92;;;1.55;;
16029;SDS011;34770;49.272;11.070;2023-09-18T16:30:31;3.13;;;1.40;;
16029;SDS011;34770;49.272;11.070;2023-09-18T16:32:56;1.90;;;1.55;;
16029;SDS011;34770;49.272;11.070;2023-09-18T16:35:22;3.95;;;2.03;;
16029;SDS011;34770;49.272;11.070;2023-09-18T16:37:48;3.22;;;1.67;;
16029;SDS011;34770;49.272;11.070;2023-09-18T16:40:13;2.63;;;1.60;;
16029;SDS011;34770;49.272;11.070;2023-09-18T16:42:40;3.08;;;1.40;;
16029;SDS011;34770;49.272;11.070;2023-09-18T16:45:06;3.92;;;1.65;;
16029;SDS011;34770;49.272;11.070;2023-09-18T16:47:50;4.05;;;1.80;;